sensor_id;sensor_type;location;lat;lon;timestamp;P1;durP1;ratioP1;P2;durP2;ratioP2
41263;SDS011;26998;48.714;9.414;2024-03-23T00:54:20;10.87;;;7.90;;
41263;SDS011;26998;48.714;9.414;2024-03-23T00:56:46;10.52;;;7.43;;
41263;SDS011;26998;48.714;9.414;2024-03-23T00:59:12;11.90;;;7.93;;
41263;SDS011;26998;48.714;9.414;2024-03-23T01:01:39;12.23;;;7.83;;
41263;SDS011;26998;48.714;9.414;2024-03-23T01:04:04;12.50;;;8.20;;
41263;SDS011;26998;48.714;9.414;2024-03-23T01:06:30;11.00;;;7.97;;
41263;SDS011;26998;48.714;9.414;2024-03-23T01:08:56;9.73;;;8.27;;
41263;SDS011;26998;48.714;9.414;2024-03-23T01:11:21;11.52;;;8.30;;
41263;SDS011;26998;48.714;9.414;2024-03-23T01:13:47;12.93;;;8.07;;
41263;SDS011;26998;48.714;9.414;2024-03-23T01:16:13;11.93;;;7.50;;
41263;SDS011;26998;48.714;9.414;2024-03-23T01:18:38;10.43;;;7.20;;
41263;SDS011;26998;48.714;9.414;2024-03-23T01:21:04;10.07;;;7.70;;
41263;SDS011;26998;48.714;9.414;2024-03-23T01:23:30;9.75;;;7.68;;
41263;SDS011;26998;48.714;9.414;2024-03-23T01:25:55;12.67;;;7.93;;
41263;SDS011;26998;48.714;9.414;2024-03-23T01:28:21;10.60;;;7.82;;
41263;SDS011;26998;48.714;9.414;2024-03-23T01:30:47;11.13;;;7.18;;
41263;SDS011;26998;48.714;9.414;2024-03-23T01:33:13;11.80;;;7.70;;
41263;SDS011;26998;48.714;9.414;2024-03-23T01:35:39;11.90;;;7.63;;
41263;SDS011;26998;48.714;9.414;2024-03-23T01:38:05;11.88;;;7.72;;
41263;SDS011;26998;48.714;9.414;2024-03-23T01:40:31;11.27;;;8.05;;
41263;SDS011;26998;48.714;9.414;2024-03-23T01:42:58;9.55;;;7.72;;
41263;SDS011;26998;48.714;9.414;2024-03-23T01:45:27;12.02;;;8.20;;
41263;SDS011;26998;48.714;9.414;2024-03-23T01:47:52;14.33;;;8.03;;
41263;SDS011;26998;48.714;9.414;2024-03-23T01:50:19;12.30;;;7.97;;
41263;SDS011;26998;48.714;9.414;2024-03-23T01:52:46;11.27;;;7.78;;
41263;SDS011;26998;48.714;9.414;2024-03-23T01:55:12;11.38;;;8.02;;
41263;SDS011;26998;48.714;9.414;2024-03-23T01:57:37;11.75;;;7.47;;
41263;SDS011;26998;48.714;9.414;2024-03-23T02:00:03;9.90;;;7.80;;
41263;SDS011;26998;48.714;9.414;2024-03-23T02:02:29;10.60;;;7.82;;
41263;SDS011;26998;48.714;9.414;2024-03-23T02:04:55;9.67;;;7.37;;
41263;SDS011;26998;48.714;9.414;2024-03-23T02:07:20;9.07;;;7.80;;
41263;SDS011;26998;48.714;9.414;2024-03-23T02:09:46;10.98;;;7.97;;
41263;SDS011;26998;48.714;9.414;2024-03-23T02:12:11;14.37;;;8.37;;
41263;SDS011;26998;48.714;9.414;2024-03-23T02:14:37;12.77;;;8.07;;
41263;SDS011;26998;48.714;9.414;2024-03-23T02:17:03;10.43;;;8.00;;
41263;SDS011;26998;48.714;9.414;2024-03-23T02:19:29;10.25;;;7.40;;
41263;SDS011;26998;48.714;9.414;2024-03-23T02:21:54;10.87;;;8.20;;
41263;SDS011;26998;48.714;9.414;2024-03-23T02:24:20;9.93;;;7.83;;
41263;SDS011;26998;48.714;9.414;2024-03-23T02:26:46;10.95;;;8.07;;
41263;SDS011;26998;48.714;9.414;2024-03-23T02:29:13;13.00;;;8.70;;
41263;SDS011;26998;48.714;9.414;2024-03-23T02:31:39;12.73;;;8.15;;
41263;SDS011;26998;48.714;9.414;2024-03-23T02:34:05;13.73;;;7.67;;
41263;SDS011;26998;48.714;9.414;2024-03-23T02:36:31;10.88;;;8.00;;
41263;SDS011;26998;48.714;9.414;2024-03-23T02:38:57;14.13;;;8.10;;
41263;SDS011;26998;48.714;9.414;2024-03-23T02:41:22;12.00;;;8.63;;
41263;SDS011;26998;48.714;9.414;2024-03-23T02:43:51;12.00;;;8.38;;
41263;SDS011;26998;48.714;9.414;2024-03-23T02:46:17;14.18;;;8.00;;
41263;SDS011;26998;48.714;9.414;2024-03-23T02:48:43;12.60;;;8.35;;
41263;SDS011;26998;48.714;9.414;2024-03-23T02:51:09;10.97;;;7.40;;
41263;SDS011;26998;48.714;9.414;2024-03-23T02:53:34;11.13;;;7.78;;
41263;SDS011;26998;48.714;9.414;2024-03-23T02:56:00;11.90;;;8.48;;
41263;SDS011;26998;48.714;9.414;2024-03-23T02:58:26;12.60;;;8.40;;
41263;SDS011;26998;48.714;9.414;2024-03-23T03:00:52;12.10;;;8.63;;
41263;SDS011;26998;48.714;9.414;2024-03-23T03:03:17;12.25;;;8.68;;
41263;SDS011;26998;48.714;9.414;2024-03-23T03:05:43;10.30;;;8.17;;
41263;SDS011;26998;48.714;9.414;2024-03-23T03:08:09;9.82;;;7.97;;
41263;SDS011;26998;48.714;9.414;2024-03-23T03:10:34;11.07;;;7.90;;
41263;SDS011;26998;48.714;9.414;2024-03-23T03:13:01;12.15;;;8.45;;
41263;SDS011;26998;48.714;9.414;2024-03-23T03:15:27;10.85;;;8.60;;
41263;SDS011;26998;48.714;9.414;2024-03-23T03:17:53;11.27;;;8.10;;
41263;SDS011;26998;48.714;9.414;2024-03-23T03:20:19;13.87;;;8.67;;
41263;SDS011;26998;48.714;9.414;2024-03-23T03:22:47;10.07;;;8.88;;
41263;SDS011;26998;48.714;9.414;2024-03-23T03:25:12;11.95;;;8.30;;
41263;SDS011;26998;48.714;9.414;2024-03-23T03:27:38;11.60;;;8.65;;
41263;SDS011;26998;48.714;9.414;2024-03-23T03:30:05;13.33;;;9.33;;
41263;SDS011;26998;48.714;9.414;2024-03-23T03:32:32;10.57;;;8.87;;
41263;SDS011;26998;48.714;9.414;2024-03-23T03:34:58;13.00;;;9.00;;
41263;SDS011;26998;48.714;9.414;2024-03-23T03:37:24;12.18;;;8.32;;
41263;SDS011;26998;48.714;9.414;2024-03-23T03:39:49;10.60;;;8.77;;
41263;SDS011;26998;48.714;9.414;2024-03-23T03:42:15;12.77;;;9.70;;
41263;SDS011;26998;48.714;9.414;2024-03-23T03:44:41;12.38;;;8.88;;
41263;SDS011;26998;48.714;9.414;2024-03-23T03:47:06;12.48;;;8.70;;
41263;SDS011;26998;48.714;9.414;2024-03-23T03:49:32;10.10;;;8.23;;
41263;SDS011;26998;48.714;9.414;2024-03-23T03:51:58;11.75;;;9.68;;
41263;SDS011;26998;48.714;9.414;2024-03-23T03:54:23;12.10;;;8.90;;
41263;SDS011;26998;48.714;9.414;2024-03-23T03:56:49;16.17;;;9.53;;
41263;SDS011;26998;48.714;9.414;2024-03-23T03:59:15;11.25;;;9.18;;
41263;SDS011;26998;48.714;9.414;2024-03-23T04:01:41;10.05;;;8.57;;
41263;SDS011;26998;48.714;9.414;2024-03-23T04:04:06;11.50;;;8.85;;
41263;SDS011;26998;48.714;9.414;2024-03-23T04:06:32;10.77;;;8.87;;
41263;SDS011;26998;48.714;9.414;2024-03-23T04:08:58;13.82;;;9.00;;
41263;SDS011;26998;48.714;9.414;2024-03-23T04:11:24;20.13;;;8.35;;
41263;SDS011;26998;48.714;9.414;2024-03-23T04:13:50;12.63;;;9.30;;
41263;SDS011;26998;48.714;9.414;2024-03-23T04:16:28;11.37;;;8.67;;
41263;SDS011;26998;48.714;9.414;2024-03-23T04:18:54;12.27;;;9.52;;
41263;SDS011;26998;48.714;9.414;2024-03-23T04:21:21;13.75;;;8.90;;
41263;SDS011;26998;48.714;9.414;2024-03-23T04:23:48;13.68;;;9.38;;
41263;SDS011;26998;48.714;9.414;2024-03-23T04:26:14;13.30;;;9.52;;
41263;SDS011;26998;48.714;9.414;2024-03-23T04:28:40;11.20;;;9.82;;
41263;SDS011;26998;48.714;9.414;2024-03-23T04:31:06;10.68;;;9.15;;
41263;SDS011;26998;48.714;9.414;2024-03-23T04:33:32;13.00;;;9.70;;
41263;SDS011;26998;48.714;9.414;2024-03-23T04:35:57;12.98;;;9.50;;
41263;SDS011;26998;48.714;9.414;2024-03-23T04:38:23;12.23;;;9.65;;
41263;SDS011;26998;48.714;9.414;2024-03-23T04:40:55;10.10;;;9.00;;
41263;SDS011;26998;48.714;9.414;2024-03-23T04:43:22;12.27;;;9.13;;
41263;SDS011;26998;48.714;9.414;2024-03-23T04:45:48;13.45;;;9.30;;
41263;SDS011;26998;48.714;9.414;2024-03-23T04:48:14;12.90;;;9.10;;
41263;SDS011;26998;48.714;9.414;2024-03-23T04:50:39;11.27;;;9.02;;
41263;SDS011;26998;48.714;9.414;2024-03-23T04:53:06;12.68;;;8.88;;
41263;SDS011;26998;48.714;9.414;2024-03-23T04:55:32;13.25;;;8.70;;
41263;SDS011;26998;48.714;9.414;2024-03-23T04:57:58;10.57;;;8.27;;
41263;SDS011;26998;48.714;9.414;2024-03-23T05:00:24;13.52;;;9.00;;
41263;SDS011;26998;48.714;9.414;2024-03-23T05:02:50;11.40;;;8.63;;
41263;SDS011;26998;48.714;9.414;2024-03-23T05:05:16;11.97;;;8.60;;
41263;SDS011;26998;48.714;9.414;2024-03-23T05:07:41;12.90;;;8.80;;
41263;SDS011;26998;48.714;9.414;2024-03-23T05:10:09;12.52;;;8.90;;
41263;SDS011;26998;48.714;9.414;2024-03-23T05:12:36;15.30;;;9.93;;
41263;SDS011;26998;48.714;9.414;2024-03-23T05:15:05;14.57;;;10.50;;
41263;SDS011;26998;48.714;9.414;2024-03-23T05:17:32;14.87;;;10.00;;
41263;SDS011;26998;48.714;9.414;2024-03-23T05:19:58;15.25;;;10.05;;
41263;SDS011;26998;48.714;9.414;2024-03-23T05:22:24;20.45;;;10.95;;
41263;SDS011;26998;48.714;9.414;2024-03-23T05:24:50;17.20;;;12.00;;
41263;SDS011;26998;48.714;9.414;2024-03-23T05:27:16;18.10;;;12.70;;
41263;SDS011;26998;48.714;9.414;2024-03-23T05:29:41;20.80;;;15.38;;
41263;SDS011;26998;48.714;9.414;2024-03-23T05:32:07;22.83;;;17.95;;
41263;SDS011;26998;48.714;9.414;2024-03-23T05:34:32;24.07;;;17.27;;
41263;SDS011;26998;48.714;9.414;2024-03-23T05:36:59;23.20;;;16.58;;
41263;SDS011;26998;48.714;9.414;2024-03-23T05:39:24;22.23;;;16.67;;
41263;SDS011;26998;48.714;9.414;2024-03-23T05:41:50;19.48;;;15.07;;
41263;SDS011;26998;48.714;9.414;2024-03-23T05:44:16;20.13;;;14.97;;
41263;SDS011;26998;48.714;9.414;2024-03-23T05:46:41;21.42;;;15.55;;
41263;SDS011;26998;48.714;9.414;2024-03-23T05:49:07;20.58;;;14.60;;
41263;SDS011;26998;48.714;9.414;2024-03-23T05:51:33;19.83;;;14.40;;
41263;SDS011;26998;48.714;9.414;2024-03-23T05:53:59;18.70;;;14.60;;
41263;SDS011;26998;48.714;9.414;2024-03-23T05:56:24;20.67;;;14.60;;
41263;SDS011;26998;48.714;9.414;2024-03-23T05:58:51;20.30;;;15.20;;
41263;SDS011;26998;48.714;9.414;2024-03-23T06:01:17;20.30;;;15.52;;
41263;SDS011;26998;48.714;9.414;2024-03-23T06:03:43;19.17;;;15.17;;
41263;SDS011;26998;48.714;9.414;2024-03-23T06:06:09;20.30;;;15.90;;
41263;SDS011;26998;48.714;9.414;2024-03-23T06:08:37;21.92;;;15.80;;
41263;SDS011;26998;48.714;9.414;2024-03-23T06:11:03;18.33;;;14.70;;
41263;SDS011;26998;48.714;9.414;2024-03-23T06:13:31;19.88;;;15.02;;
41263;SDS011;26998;48.714;9.414;2024-03-23T06:15:59;21.13;;;15.65;;
41263;SDS011;26998;48.714;9.414;2024-03-23T06:18:28;21.48;;;16.33;;
41263;SDS011;26998;48.714;9.414;2024-03-23T06:20:53;20.37;;;15.20;;
41263;SDS011;26998;48.714;9.414;2024-03-23T06:23:19;17.20;;;13.73;;
41263;SDS011;26998;48.714;9.414;2024-03-23T06:25:46;15.10;;;11.77;;
41263;SDS011;26998;48.714;9.414;2024-03-23T06:28:12;15.52;;;11.10;;
41263;SDS011;26998;48.714;9.414;2024-03-23T06:30:37;12.93;;;9.60;;
41263;SDS011;26998;48.714;9.414;2024-03-23T06:33:03;10.13;;;7.50;;
41263;SDS011;26998;48.714;9.414;2024-03-23T06:35:31;9.05;;;6.85;;
41263;SDS011;26998;48.714;9.414;2024-03-23T06:37:56;8.32;;;6.72;;
41263;SDS011;26998;48.714;9.414;2024-03-23T06:40:23;5.60;;;4.47;;
41263;SDS011;26998;48.714;9.414;2024-03-23T06:42:49;5.38;;;4.13;;
41263;SDS011;26998;48.714;9.414;2024-03-23T06:45:15;7.10;;;3.80;;
41263;SDS011;26998;48.714;9.414;2024-03-23T06:47:41;6.47;;;4.45;;
41263;SDS011;26998;48.714;9.414;2024-03-23T06:50:07;5.30;;;3.72;;
41263;SDS011;26998;48.714;9.414;2024-03-23T06:52:33;4.57;;;3.27;;
41263;SDS011;26998;48.714;9.414;2024-03-23T06:54:58;5.20;;;3.72;;
41263;SDS011;26998;48.714;9.414;2024-03-23T06:57:24;3.72;;;2.45;;
41263;SDS011;26998;48.714;9.414;2024-03-23T06:59:50;3.33;;;2.00;;
41263;SDS011;26998;48.714;9.414;2024-03-23T07:02:15;2.90;;;1.50;;
41263;SDS011;26998;48.714;9.414;2024-03-23T07:04:41;2.40;;;0.98;;
41263;SDS011;26998;48.714;9.414;2024-03-23T07:07:07;1.60;;;0.80;;
41263;SDS011;26998;48.714;9.414;2024-03-23T07:09:33;2.30;;;0.70;;
41263;SDS011;26998;48.714;9.414;2024-03-23T07:11:58;0.60;;;0.60;;
41263;SDS011;26998;48.714;9.414;2024-03-23T07:14:24;1.15;;;0.50;;
41263;SDS011;26998;48.714;9.414;2024-03-23T07:16:50;0.47;;;0.47;;
41263;SDS011;26998;48.714;9.414;2024-03-23T07:19:16;0.50;;;0.50;;
41263;SDS011;26998;48.714;9.414;2024-03-23T07:21:43;1.20;;;0.60;;
41263;SDS011;26998;48.714;9.414;2024-03-23T07:24:09;0.63;;;0.60;;
41263;SDS011;26998;48.714;9.414;2024-03-23T07:26:35;0.80;;;0.60;;
41263;SDS011;26998;48.714;9.414;2024-03-23T07:29:01;1.10;;;0.55;;
41263;SDS011;26998;48.714;9.414;2024-03-23T07:31:27;0.47;;;0.47;;
41263;SDS011;26998;48.714;9.414;2024-03-23T07:33:53;0.50;;;0.50;;
41263;SDS011;26998;48.714;9.414;2024-03-23T07:36:19;0.60;;;0.50;;
41263;SDS011;26998;48.714;9.414;2024-03-23T07:38:44;0.40;;;0.38;;
41263;SDS011;26998;48.714;9.414;2024-03-23T07:41:11;0.50;;;0.50;;
41263;SDS011;26998;48.714;9.414;2024-03-23T07:43:38;0.43;;;0.43;;
41263;SDS011;26998;48.714;9.414;2024-03-23T07:46:05;0.85;;;0.43;;
41263;SDS011;26998;48.714;9.414;2024-03-23T07:48:34;0.80;;;0.40;;
41263;SDS011;26998;48.714;9.414;2024-03-23T07:53:27;0.50;;;0.40;;
41263;SDS011;26998;48.714;9.414;2024-03-23T07:55:59;0.70;;;0.35;;
41263;SDS011;26998;48.714;9.414;2024-03-23T07:58:27;1.52;;;0.77;;
41263;SDS011;26998;48.714;9.414;2024-03-23T08:00:56;4.03;;;3.00;;
41263;SDS011;26998;48.714;9.414;2024-03-23T08:03:24;6.90;;;4.38;;
41263;SDS011;26998;48.714;9.414;2024-03-23T08:05:49;2.88;;;2.15;;
41263;SDS011;26998;48.714;9.414;2024-03-23T08:08:15;2.45;;;1.40;;
41263;SDS011;26998;48.714;9.414;2024-03-23T08:10:51;0.50;;;0.50;;
41263;SDS011;26998;48.714;9.414;2024-03-23T08:13:17;0.50;;;0.50;;
41263;SDS011;26998;48.714;9.414;2024-03-23T08:15:46;1.50;;;0.50;;
41263;SDS011;26998;48.714;9.414;2024-03-23T08:18:12;1.30;;;0.57;;
41263;SDS011;26998;48.714;9.414;2024-03-23T08:20:39;0.98;;;0.40;;
41263;SDS011;26998;48.714;9.414;2024-03-23T08:23:06;0.90;;;0.40;;
41263;SDS011;26998;48.714;9.414;2024-03-23T08:25:32;1.50;;;0.90;;
41263;SDS011;26998;48.714;9.414;2024-03-23T08:27:58;1.20;;;0.68;;
41263;SDS011;26998;48.714;9.414;2024-03-23T08:30:24;0.60;;;0.60;;
41263;SDS011;26998;48.714;9.414;2024-03-23T08:32:50;0.60;;;0.60;;
41263;SDS011;26998;48.714;9.414;2024-03-23T08:35:18;1.00;;;0.90;;
41263;SDS011;26998;48.714;9.414;2024-03-23T08:37:44;1.20;;;0.80;;
41263;SDS011;26998;48.714;9.414;2024-03-23T08:40:28;1.10;;;0.80;;
41263;SDS011;26998;48.714;9.414;2024-03-23T08:42:54;1.45;;;0.80;;
41263;SDS011;26998;48.714;9.414;2024-03-23T08:45:19;0.70;;;0.70;;
41263;SDS011;26998;48.714;9.414;2024-03-23T08:47:48;0.80;;;0.70;;
41263;SDS011;26998;48.714;9.414;2024-03-23T08:50:13;1.30;;;0.82;;
41263;SDS011;26998;48.714;9.414;2024-03-23T08:52:39;0.73;;;0.73;;
41263;SDS011;26998;48.714;9.414;2024-03-23T08:55:05;1.23;;;0.80;;
41263;SDS011;26998;48.714;9.414;2024-03-23T08:57:31;3.80;;;1.17;;
41263;SDS011;26998;48.714;9.414;2024-03-23T08:59:57;1.23;;;0.90;;
41263;SDS011;26998;48.714;9.414;2024-03-23T09:02:22;2.22;;;1.20;;
41263;SDS011;26998;48.714;9.414;2024-03-23T09:04:48;3.22;;;1.00;;
41263;SDS011;26998;48.714;9.414;2024-03-23T09:07:14;2.25;;;1.00;;
41263;SDS011;26998;48.714;9.414;2024-03-23T09:09:40;2.13;;;0.95;;
41263;SDS011;26998;48.714;9.414;2024-03-23T09:12:06;2.05;;;0.90;;
41263;SDS011;26998;48.714;9.414;2024-03-23T09:14:33;0.70;;;0.70;;
41263;SDS011;26998;48.714;9.414;2024-03-23T09:16:59;2.67;;;1.23;;
41263;SDS011;26998;48.714;9.414;2024-03-23T09:19:26;1.42;;;1.20;;
41263;SDS011;26998;48.714;9.414;2024-03-23T09:21:53;4.27;;;1.93;;
41263;SDS011;26998;48.714;9.414;2024-03-23T09:24:20;2.47;;;1.70;;
41263;SDS011;26998;48.714;9.414;2024-03-23T09:26:48;3.42;;;1.90;;
41263;SDS011;26998;48.714;9.414;2024-03-23T09:29:14;5.23;;;2.17;;
41263;SDS011;26998;48.714;9.414;2024-03-23T09:31:40;4.95;;;2.13;;
41263;SDS011;26998;48.714;9.414;2024-03-23T09:34:06;5.93;;;2.90;;
41263;SDS011;26998;48.714;9.414;2024-03-23T09:36:31;6.32;;;2.42;;
41263;SDS011;26998;48.714;9.414;2024-03-23T09:38:57;5.90;;;2.65;;
41263;SDS011;26998;48.714;9.414;2024-03-23T09:41:23;7.00;;;2.90;;
41263;SDS011;26998;48.714;9.414;2024-03-23T09:43:52;6.23;;;2.70;;
41263;SDS011;26998;48.714;9.414;2024-03-23T09:46:19;6.47;;;2.70;;
41263;SDS011;26998;48.714;9.414;2024-03-23T09:48:46;5.85;;;2.25;;
41263;SDS011;26998;48.714;9.414;2024-03-23T09:51:12;4.22;;;2.38;;
41263;SDS011;26998;48.714;9.414;2024-03-23T09:53:38;5.97;;;2.53;;
41263;SDS011;26998;48.714;9.414;2024-03-23T09:56:07;6.95;;;2.30;;
41263;SDS011;26998;48.714;9.414;2024-03-23T09:58:34;6.32;;;2.70;;
41263;SDS011;26998;48.714;9.414;2024-03-23T10:01:00;5.40;;;2.60;;
41263;SDS011;26998;48.714;9.414;2024-03-23T10:03:26;3.85;;;2.30;;
41263;SDS011;26998;48.714;9.414;2024-03-23T10:06:01;5.57;;;2.63;;
41263;SDS011;26998;48.714;9.414;2024-03-23T10:08:28;4.60;;;2.58;;
41263;SDS011;26998;48.714;9.414;2024-03-23T10:10:55;6.60;;;2.75;;
41263;SDS011;26998;48.714;9.414;2024-03-23T10:13:25;7.33;;;3.10;;
41263;SDS011;26998;48.714;9.414;2024-03-23T10:15:57;7.50;;;3.10;;
41263;SDS011;26998;48.714;9.414;2024-03-23T10:18:24;8.48;;;3.28;;
41263;SDS011;26998;48.714;9.414;2024-03-23T10:23:35;7.78;;;3.40;;
41263;SDS011;26998;48.714;9.414;2024-03-23T10:26:18;6.85;;;3.30;;
41263;SDS011;26998;48.714;9.414;2024-03-23T10:28:55;6.47;;;2.92;;
41263;SDS011;26998;48.714;9.414;2024-03-23T10:31:27;10.60;;;3.60;;
41263;SDS011;26998;48.714;9.414;2024-03-23T10:33:54;8.20;;;3.17;;
41263;SDS011;26998;48.714;9.414;2024-03-23T10:36:20;7.97;;;3.33;;
41263;SDS011;26998;48.714;9.414;2024-03-23T10:38:47;8.90;;;3.77;;
41263;SDS011;26998;48.714;9.414;2024-03-23T10:41:15;7.15;;;3.00;;
41263;SDS011;26998;48.714;9.414;2024-03-23T10:43:41;9.35;;;3.47;;
41263;SDS011;26998;48.714;9.414;2024-03-23T10:46:08;6.45;;;3.45;;
41263;SDS011;26998;48.714;9.414;2024-03-23T10:48:34;8.20;;;3.50;;
41263;SDS011;26998;48.714;9.414;2024-03-23T10:51:00;8.25;;;3.70;;
41263;SDS011;26998;48.714;9.414;2024-03-23T10:53:26;7.85;;;3.60;;
41263;SDS011;26998;48.714;9.414;2024-03-23T10:55:53;9.13;;;3.38;;
41263;SDS011;26998;48.714;9.414;2024-03-23T10:58:42;7.97;;;3.80;;
41263;SDS011;26998;48.714;9.414;2024-03-23T11:01:11;8.75;;;3.28;;
41263;SDS011;26998;48.714;9.414;2024-03-23T11:03:39;7.38;;;3.35;;
41263;SDS011;26998;48.714;9.414;2024-03-23T11:06:09;5.53;;;2.80;;
41263;SDS011;26998;48.714;9.414;2024-03-23T11:08:39;9.25;;;3.75;;
41263;SDS011;26998;48.714;9.414;2024-03-23T11:11:17;8.10;;;3.60;;
41263;SDS011;26998;48.714;9.414;2024-03-23T11:13:44;6.18;;;3.22;;
41263;SDS011;26998;48.714;9.414;2024-03-23T11:16:13;9.02;;;4.18;;
41263;SDS011;26998;48.714;9.414;2024-03-23T11:18:39;6.90;;;3.60;;
41263;SDS011;26998;48.714;9.414;2024-03-23T11:21:06;8.60;;;4.22;;
41263;SDS011;26998;48.714;9.414;2024-03-23T11:23:32;5.55;;;2.72;;
41263;SDS011;26998;48.714;9.414;2024-03-23T11:25:58;3.60;;;2.10;;
41263;SDS011;26998;48.714;9.414;2024-03-23T11:28:24;2.15;;;1.70;;
41263;SDS011;26998;48.714;9.414;2024-03-23T11:30:49;2.55;;;1.85;;
41263;SDS011;26998;48.714;9.414;2024-03-23T11:33:15;2.83;;;1.63;;
41263;SDS011;26998;48.714;9.414;2024-03-23T11:35:41;2.83;;;1.80;;
41263;SDS011;26998;48.714;9.414;2024-03-23T11:38:10;4.13;;;1.88;;
41263;SDS011;26998;48.714;9.414;2024-03-23T11:40:48;3.42;;;2.40;;
41263;SDS011;26998;48.714;9.414;2024-03-23T11:43:15;2.88;;;2.25;;
41263;SDS011;26998;48.714;9.414;2024-03-23T11:45:48;5.77;;;2.90;;
41263;SDS011;26998;48.714;9.414;2024-03-23T11:48:20;5.25;;;3.00;;
41263;SDS011;26998;48.714;9.414;2024-03-23T11:50:48;5.47;;;2.60;;
41263;SDS011;26998;48.714;9.414;2024-03-23T11:53:16;5.32;;;3.30;;
41263;SDS011;26998;48.714;9.414;2024-03-23T11:55:50;5.65;;;2.90;;
41263;SDS011;26998;48.714;9.414;2024-03-23T11:58:17;3.58;;;2.15;;
41263;SDS011;26998;48.714;9.414;2024-03-23T12:03:27;5.00;;;2.63;;
41263;SDS011;26998;48.714;9.414;2024-03-23T12:05:54;3.75;;;2.30;;
41263;SDS011;26998;48.714;9.414;2024-03-23T12:08:25;4.30;;;2.40;;
41263;SDS011;26998;48.714;9.414;2024-03-23T12:11:07;4.55;;;2.60;;
41263;SDS011;26998;48.714;9.414;2024-03-23T12:13:41;3.72;;;2.40;;
41263;SDS011;26998;48.714;9.414;2024-03-23T12:16:19;4.38;;;2.25;;
41263;SDS011;26998;48.714;9.414;2024-03-23T12:18:47;3.08;;;2.15;;
41263;SDS011;26998;48.714;9.414;2024-03-23T12:21:14;3.88;;;2.40;;
41263;SDS011;26998;48.714;9.414;2024-03-23T12:23:40;5.85;;;2.70;;
41263;SDS011;26998;48.714;9.414;2024-03-23T12:26:07;4.90;;;2.70;;
41263;SDS011;26998;48.714;9.414;2024-03-23T12:28:33;4.65;;;2.47;;
41263;SDS011;26998;48.714;9.414;2024-03-23T12:30:58;5.20;;;2.50;;
41263;SDS011;26998;48.714;9.414;2024-03-23T12:33:24;5.47;;;2.30;;
41263;SDS011;26998;48.714;9.414;2024-03-23T12:35:50;4.90;;;2.43;;
41263;SDS011;26998;48.714;9.414;2024-03-23T12:38:16;6.75;;;2.22;;
41263;SDS011;26998;48.714;9.414;2024-03-23T12:40:46;5.82;;;2.30;;
41263;SDS011;26998;48.714;9.414;2024-03-23T12:43:13;4.57;;;2.40;;
41263;SDS011;26998;48.714;9.414;2024-03-23T12:45:39;5.43;;;2.35;;
41263;SDS011;26998;48.714;9.414;2024-03-23T12:48:05;6.35;;;2.78;;
41263;SDS011;26998;48.714;9.414;2024-03-23T12:50:31;3.60;;;2.13;;
41263;SDS011;26998;48.714;9.414;2024-03-23T12:52:57;4.40;;;2.08;;
41263;SDS011;26998;48.714;9.414;2024-03-23T12:55:22;5.05;;;2.13;;
41263;SDS011;26998;48.714;9.414;2024-03-23T12:58:03;7.15;;;2.47;;
41263;SDS011;26998;48.714;9.414;2024-03-23T13:00:30;4.43;;;1.90;;
41263;SDS011;26998;48.714;9.414;2024-03-23T13:02:56;9.57;;;2.33;;
41263;SDS011;26998;48.714;9.414;2024-03-23T13:05:22;6.97;;;2.13;;
41263;SDS011;26998;48.714;9.414;2024-03-23T13:07:48;7.85;;;2.45;;
41263;SDS011;26998;48.714;9.414;2024-03-23T13:10:13;6.93;;;2.40;;
41263;SDS011;26998;48.714;9.414;2024-03-23T13:12:40;8.43;;;2.30;;
41263;SDS011;26998;48.714;9.414;2024-03-23T13:15:05;7.13;;;2.23;;
41263;SDS011;26998;48.714;9.414;2024-03-23T13:17:31;7.03;;;2.47;;
41263;SDS011;26998;48.714;9.414;2024-03-23T13:19:57;6.53;;;2.60;;
41263;SDS011;26998;48.714;9.414;2024-03-23T13:22:23;6.55;;;2.63;;
41263;SDS011;26998;48.714;9.414;2024-03-23T13:24:49;5.27;;;2.47;;
41263;SDS011;26998;48.714;9.414;2024-03-23T13:27:15;9.23;;;2.83;;
41263;SDS011;26998;48.714;9.414;2024-03-23T13:29:41;8.70;;;3.13;;
41263;SDS011;26998;48.714;9.414;2024-03-23T13:32:22;10.63;;;2.72;;
41263;SDS011;26998;48.714;9.414;2024-03-23T13:34:48;5.83;;;2.50;;
41263;SDS011;26998;48.714;9.414;2024-03-23T13:37:16;7.10;;;2.80;;
41263;SDS011;26998;48.714;9.414;2024-03-23T13:39:41;7.53;;;2.53;;
41263;SDS011;26998;48.714;9.414;2024-03-23T13:42:07;6.05;;;2.88;;
41263;SDS011;26998;48.714;9.414;2024-03-23T13:44:34;7.18;;;2.75;;
41263;SDS011;26998;48.714;9.414;2024-03-23T13:47:00;5.90;;;2.45;;
41263;SDS011;26998;48.714;9.414;2024-03-23T13:49:27;5.40;;;2.42;;
41263;SDS011;26998;48.714;9.414;2024-03-23T13:51:54;4.45;;;1.90;;
41263;SDS011;26998;48.714;9.414;2024-03-23T13:54:21;3.97;;;1.48;;
41263;SDS011;26998;48.714;9.414;2024-03-23T13:56:54;1.75;;;1.00;;
41263;SDS011;26998;48.714;9.414;2024-03-23T13:59:21;4.43;;;1.30;;
41263;SDS011;26998;48.714;9.414;2024-03-23T14:01:51;1.67;;;0.73;;
41263;SDS011;26998;48.714;9.414;2024-03-23T14:04:17;3.15;;;1.13;;
41263;SDS011;26998;48.714;9.414;2024-03-23T14:06:46;2.40;;;1.10;;
41263;SDS011;26998;48.714;9.414;2024-03-23T14:09:13;3.40;;;1.08;;
41263;SDS011;26998;48.714;9.414;2024-03-23T14:11:39;3.93;;;0.93;;
41263;SDS011;26998;48.714;9.414;2024-03-23T14:14:06;2.88;;;1.20;;
41263;SDS011;26998;48.714;9.414;2024-03-23T14:16:33;3.70;;;1.33;;
41263;SDS011;26998;48.714;9.414;2024-03-23T14:18:59;4.40;;;1.77;;
41263;SDS011;26998;48.714;9.414;2024-03-23T14:21:25;4.70;;;2.00;;
41263;SDS011;26998;48.714;9.414;2024-03-23T14:23:51;4.75;;;2.40;;
41263;SDS011;26998;48.714;9.414;2024-03-23T14:26:17;2.80;;;1.40;;
41263;SDS011;26998;48.714;9.414;2024-03-23T14:28:42;3.70;;;1.35;;
41263;SDS011;26998;48.714;9.414;2024-03-23T14:31:08;2.97;;;1.55;;
41263;SDS011;26998;48.714;9.414;2024-03-23T14:33:37;3.38;;;1.20;;
41263;SDS011;26998;48.714;9.414;2024-03-23T14:36:06;3.53;;;1.53;;
41263;SDS011;26998;48.714;9.414;2024-03-23T14:38:32;4.77;;;1.77;;
41263;SDS011;26998;48.714;9.414;2024-03-23T14:40:59;6.10;;;1.70;;
41263;SDS011;26998;48.714;9.414;2024-03-23T14:43:25;3.97;;;1.65;;
41263;SDS011;26998;48.714;9.414;2024-03-23T14:46:07;3.50;;;1.42;;
41263;SDS011;26998;48.714;9.414;2024-03-23T14:48:37;4.38;;;1.42;;
41263;SDS011;26998;48.714;9.414;2024-03-23T14:51:03;4.35;;;1.20;;
41263;SDS011;26998;48.714;9.414;2024-03-23T14:53:34;3.30;;;1.10;;
41263;SDS011;26998;48.714;9.414;2024-03-23T14:56:07;2.43;;;1.37;;
41263;SDS011;26998;48.714;9.414;2024-03-23T14:58:34;2.47;;;1.05;;
41263;SDS011;26998;48.714;9.414;2024-03-23T15:01:03;3.53;;;1.05;;
41263;SDS011;26998;48.714;9.414;2024-03-23T15:03:30;1.95;;;0.90;;
41263;SDS011;26998;48.714;9.414;2024-03-23T15:05:56;1.20;;;1.00;;
41263;SDS011;26998;48.714;9.414;2024-03-23T15:08:25;2.42;;;0.88;;
41263;SDS011;26998;48.714;9.414;2024-03-23T15:10:52;4.55;;;1.42;;
41263;SDS011;26998;48.714;9.414;2024-03-23T15:13:18;3.38;;;1.23;;
41263;SDS011;26998;48.714;9.414;2024-03-23T15:15:44;4.05;;;1.48;;
41263;SDS011;26998;48.714;9.414;2024-03-23T15:18:13;3.28;;;1.27;;
41263;SDS011;26998;48.714;9.414;2024-03-23T15:20:54;3.33;;;1.30;;
41263;SDS011;26998;48.714;9.414;2024-03-23T15:23:20;1.70;;;0.90;;
41263;SDS011;26998;48.714;9.414;2024-03-23T15:26:08;3.78;;;1.30;;
41263;SDS011;26998;48.714;9.414;2024-03-23T15:28:32;2.78;;;0.90;;
41263;SDS011;26998;48.714;9.414;2024-03-23T15:31:07;1.55;;;0.70;;
41263;SDS011;26998;48.714;9.414;2024-03-23T15:33:36;4.75;;;1.02;;
41263;SDS011;26998;48.714;9.414;2024-03-23T15:36:02;1.17;;;1.00;;
41263;SDS011;26998;48.714;9.414;2024-03-23T15:38:28;2.17;;;1.15;;
41263;SDS011;26998;48.714;9.414;2024-03-23T15:40:57;1.65;;;1.02;;